Time;durP1;ratioP1;P1;durP2;ratioP2;P2;SDS_P1;SDS_P2;PMS_P1;PMS_P2;Temp;Humidity;BMP_temperature;BMP_pressure;BME280_temperature;BME280_humidity;BME280_pressure;Samples;Min_cycle;Max_cycle;Signal;HPM_P1;HPM_P2
2022/09/22 00:00:13;;;;;;;11.27;4.13;;;7.30;1.00;;;;;;5053872;28;20198;-82
2022/09/22 00:03:02;;;;;;;12.50;4.90;;;7.20;1.00;;;;;;5034195;28;20660;-82
2022/09/22 00:06:14;;;;;;;9.13;4.80;;;7.20;1.00;;;;;;5040410;28;20414;-82
2022/09/22 00:09:02;;;;;;;15.53;4.53;;;7.20;1.00;;;;;;5054932;28;20410;-81
2022/09/22 00:11:30;;;;;;;11.13;4.70;;;7.20;1.00;;;;;;5054640;28;20440;-82
2022/09/22 00:14:26;;;;;;;13.77;4.77;;;7.20;1.00;;;;;;5046309;28;20573;-81
2022/09/22 00:16:59;;;;;;;8.90;4.47;;;7.20;1.00;;;;;;5041170;28;20461;-81
2022/09/22 00:19:35;;;;;;;11.20;4.70;;;7.20;1.00;;;;;;5053059;28;20426;-81
2022/09/22 00:22:04;;;;;;;11.43;5.07;;;7.20;1.00;;;;;;5054554;28;20763;-81
2022/09/22 00:24:32;;;;;;;7.73;5.23;;;7.10;1.00;;;;;;5054375;28;20414;-81
2022/09/22 00:26:59;;;;;;;9.50;5.43;;;7.20;1.00;;;;;;5051726;28;20999;-81
2022/09/22 00:29:28;;;;;;;9.50;4.63;;;7.10;1.00;;;;;;5053372;28;20437;-77
2022/09/22 00:32:02;;;;;;;6.70;4.97;;;7.10;1.00;;;;;;5041023;28;20474;-77
2022/09/22 00:34:32;;;;;;;12.07;5.60;;;7.10;1.00;;;;;;5051751;28;20452;-77
2022/09/22 00:37:08;;;;;;;8.27;5.70;;;7.10;1.00;;;;;;5042973;28;20978;-77
2022/09/22 00:39:38;;;;;;;14.50;6.20;;;7.10;1.00;;;;;;5047481;28;20481;-77
2022/09/22 00:42:04;;;;;;;14.20;5.40;;;7.10;1.00;;;;;;5047500;28;20417;-77
2022/09/22 00:44:35;;;;;;;7.70;5.03;;;7.00;1.00;;;;;;5040264;28;20786;-77
2022/09/22 00:47:23;;;;;;;9.50;5.10;;;7.00;1.00;;;;;;5050391;28;20829;-78
2022/09/22 00:50:15;;;;;;;9.20;5.00;;;7.00;1.00;;;;;;5034637;28;20395;-77
2022/09/22 00:52:55;;;;;;;9.70;5.60;;;7.00;1.00;;;;;;4992657;28;20888;-77
2022/09/22 00:56:07;;;;;;;8.30;5.40;;;7.00;1.00;;;;;;4987343;28;20428;-77
2022/09/22 00:58:57;;;;;;;6.63;4.77;;;7.00;1.00;;;;;;4993497;28;20460;-81
2022/09/22 01:01:23;;;;;;;13.43;5.10;;;6.90;1.00;;;;;;5005898;28;20435;-82
2022/09/22 01:04:16;;;;;;;10.40;5.70;;;6.90;1.00;;;;;;4992549;28;20926;-82
2022/09/22 01:10:03;;;;;;;8.30;4.90;;;6.90;1.00;;;;;;4998697;28;20531;-82
2022/09/22 01:13:14;;;;;;;6.77;4.83;;;6.90;1.00;;;;;;5011998;28;20987;-82
2022/09/22 01:16:19;;;;;;;10.63;5.27;;;6.90;1.00;;;;;;5002363;28;20440;-81
2022/09/22 01:22:35;;;;;;;9.33;5.70;;;6.80;1.00;;;;;;5011819;28;20910;-82
2022/09/22 01:25:55;;;;;;;9.83;5.70;;;6.80;1.00;;;;;;5007411;28;20799;-81
2022/09/22 01:28:41;;;;;;;8.20;5.53;;;6.80;1.00;;;;;;5010070;28;20412;-82
2022/09/22 01:31:28;;;;;;;15.73;5.80;;;6.70;1.00;;;;;;5041913;28;20826;-82
2022/09/22 01:34:21;;;;;;;8.27;5.43;;;6.70;1.00;;;;;;5053123;28;20421;-82
2022/09/22 01:37:18;;;;;;;12.80;5.27;;;6.70;1.00;;;;;;5041051;28;20486;-81
2022/09/22 01:40:04;;;;;;;10.00;5.70;;;6.70;1.00;;;;;;5043512;28;20497;-82
2022/09/22 01:42:48;;;;;;;9.90;5.50;;;6.70;1.00;;;;;;5039747;28;20402;-81
2022/09/22 01:45:29;;;;;;;16.20;5.73;;;6.60;1.00;;;;;;5048293;28;20476;-81
2022/09/22 01:48:08;;;;;;;8.03;5.23;;;6.60;1.00;;;;;;5033360;28;20767;-82
2022/09/22 01:50:42;;;;;;;11.40;5.80;;;6.60;1.00;;;;;;5046806;28;20442;-82
2022/09/22 01:53:14;;;;;;;6.67;5.27;;;6.60;1.00;;;;;;5046171;28;20430;-81
2022/09/22 01:55:54;;;;;;;7.63;5.30;;;6.60;1.00;;;;;;5032230;28;20407;-82
2022/09/22 01:58:36;;;;;;;6.27;4.87;;;6.50;1.00;;;;;;5048560;28;20454;-82
2022/09/22 02:01:08;;;;;;;10.33;5.23;;;6.50;1.00;;;;;;5051952;28;20496;-77
2022/09/22 02:04:02;;;;;;;7.23;5.67;;;6.50;1.00;;;;;;5047668;28;20457;-77
2022/09/22 02:06:46;;;;;;;12.70;5.47;;;6.40;1.00;;;;;;5011295;28;20440;-77
2022/09/22 02:09:18;;;;;;;8.53;5.57;;;6.40;1.00;;;;;;5016802;28;20452;-77
2022/09/22 02:11:57;;;;;;;15.93;6.00;;;6.40;1.00;;;;;;5034882;28;20422;-77
2022/09/22 02:14:32;;;;;;;7.70;5.70;;;6.30;1.00;;;;;;5032902;28;20438;-81
2022/09/22 02:17:32;;;;;;;10.73;5.90;;;6.40;1.00;;;;;;5018158;28;21000;-81
2022/09/22 02:19:58;;;;;;;9.53;5.60;;;6.30;1.00;;;;;;5015080;28;20396;-82
2022/09/22 02:22:32;;;;;;;8.23;5.20;;;6.30;1.00;;;;;;5028432;28;20639;-82
2022/09/22 02:28:22;;;;;;;9.57;4.80;;;6.30;1.00;;;;;;5016239;28;20375;-81
2022/09/22 02:30:50;;;;;;;11.50;5.30;;;6.30;1.00;;;;;;5035065;28;20446;-78
2022/09/22 02:33:28;;;;;;;6.30;4.90;;;6.20;1.00;;;;;;5034625;28;20425;-77
2022/09/22 02:36:23;;;;;;;8.13;4.60;;;6.20;1.00;;;;;;5029503;28;20408;-77
2022/09/22 02:39:13;;;;;;;13.60;4.90;;;6.30;1.00;;;;;;4937156;29;20954;-78
2022/09/22 02:42:13;;;;;;;7.53;5.00;;;6.20;1.00;;;;;;4937261;29;20463;-77
2022/09/22 02:45:19;;;;;;;7.87;4.60;;;6.20;1.00;;;;;;4986730;28;20436;-78
2022/09/22 02:48:28;;;;;;;7.80;5.30;;;6.20;1.00;;;;;;4975683;28;20410;-77
2022/09/22 02:51:02;;;;;;;12.10;5.80;;;6.20;1.00;;;;;;4965565;28;20758;-77
2022/09/22 02:53:44;;;;;;;9.10;4.80;;;6.20;1.00;;;;;;4980074;28;20507;-78
2022/09/22 02:56:14;;;;;;;6.30;5.30;;;6.20;1.00;;;;;;4994802;28;20409;-77
2022/09/22 02:59:14;;;;;;;9.50;5.33;;;6.10;1.00;;;;;;4994337;28;20475;-77
2022/09/22 03:02:02;;;;;;;7.60;5.67;;;6.20;1.00;;;;;;4995213;28;20409;-82
2022/09/22 03:04:38;;;;;;;10.97;5.20;;;6.10;1.00;;;;;;4978251;28;20762;-81
2022/09/22 03:07:14;;;;;;;12.60;4.80;;;6.10;1.00;;;;;;4975421;28;20937;-81
2022/09/22 03:10:02;;;;;;;5.73;4.53;;;6.10;1.00;;;;;;4973839;28;20428;-81
2022/09/22 03:12:44;;;;;;;5.80;4.60;;;6.10;1.00;;;;;;4994230;28;20429;-82
2022/09/22 03:15:44;;;;;;;8.37;5.03;;;6.10;1.00;;;;;;4989694;28;20786;-77
2022/09/22 03:18:10;;;;;;;8.20;4.40;;;6.10;1.00;;;;;;5041587;28;20530;-77
2022/09/22 03:20:38;;;;;;;10.73;4.63;;;6.10;1.00;;;;;;5036038;28;20512;-77
2022/09/22 03:23:04;;;;;;;9.60;5.20;;;6.10;1.00;;;;;;5049509;28;20412;-77
2022/09/22 03:25:30;;;;;;;5.67;4.67;;;6.10;1.00;;;;;;5045529;28;20908;-77
2022/09/22 03:27:56;;;;;;;8.50;4.70;;;6.10;1.00;;;;;;5055471;28;20441;-77
2022/09/22 03:30:26;;;;;;;6.00;5.37;;;6.00;1.00;;;;;;5048436;28;20191;-82
2022/09/22 03:32:56;;;;;;;7.63;4.57;;;6.00;1.00;;;;;;5042332;28;20634;-83
2022/09/22 03:36:01;;;;;;;5.30;4.80;;;6.00;1.00;;;;;;5044661;28;20419;-82
2022/09/22 03:39:20;;;;;;;5.67;5.00;;;6.00;1.00;;;;;;5055449;28;20453;-82
2022/09/22 03:42:13;;;;;;;8.77;4.97;;;5.90;1.00;;;;;;5045920;28;20458;-82
2022/09/22 03:44:50;;;;;;;5.80;4.90;;;5.90;1.00;;;;;;5042659;28;20413;-82
2022/09/22 03:47:32;;;;;;;8.43;4.70;;;5.90;1.00;;;;;;5053889;28;20426;-82
2022/09/22 03:50:14;;;;;;;11.30;4.83;;;5.90;1.00;;;;;;5043015;28;20945;-82
2022/09/22 03:52:44;;;;;;;6.03;4.77;;;5.90;1.00;;;;;;5041798;28;20931;-82
2022/09/22 03:55:26;;;;;;;7.43;4.70;;;5.80;1.00;;;;;;5041614;28;20423;-82
2022/09/22 03:57:56;;;;;;;5.47;4.53;;;5.80;1.00;;;;;;5035363;28;20843;-82
2022/09/22 04:00:22;;;;;;;6.57;4.73;;;5.70;1.00;;;;;;5050899;28;20417;-77
2022/09/22 04:02:50;;;;;;;6.60;4.83;;;5.80;1.00;;;;;;5045026;28;20537;-78
2022/09/22 04:05:20;;;;;;;6.53;4.30;;;5.70;1.00;;;;;;5047736;28;20719;-77
2022/09/22 04:07:50;;;;;;;5.10;4.43;;;5.70;1.00;;;;;;5045220;28;20995;-77
2022/09/22 04:10:16;;;;;;;5.90;5.30;;;5.70;1.00;;;;;;5054455;28;20418;-77
2022/09/22 04:12:42;;;;;;;6.10;4.80;;;5.70;1.00;;;;;;5054826;28;20425;-77
2022/09/22 04:15:20;;;;;;;10.83;4.23;;;5.70;1.00;;;;;;5039966;28;20172;-77
2022/09/22 04:18:08;;;;;;;6.63;4.60;;;5.70;1.00;;;;;;5035129;28;20604;-77
2022/09/22 04:20:44;;;;;;;13.03;4.80;;;5.70;1.00;;;;;;5034672;28;20406;-77
2022/09/22 04:23:38;;;;;;;6.93;4.20;;;5.60;1.00;;;;;;5048359;28;20445;-77
2022/09/22 04:26:14;;;;;;;6.23;4.40;;;5.60;1.00;;;;;;5042834;28;20430;-77
2022/09/22 04:28:50;;;;;;;6.40;4.83;;;5.60;1.00;;;;;;5039389;28;20992;-76
2022/09/22 04:31:16;;;;;;;9.67;4.80;;;5.50;1.00;;;;;;5034619;28;20439;-77
2022/09/22 04:33:41;;;;;;;9.53;4.90;;;5.40;1.00;;;;;;5044424;28;20463;-77
2022/09/22 04:36:38;;;;;;;7.30;4.87;;;5.40;1.00;;;;;;5040810;28;20187;-77
2022/09/22 04:39:14;;;;;;;4.87;4.47;;;5.40;1.00;;;;;;5039277;28;20225;-78
2022/09/22 04:45:08;;;;;;;9.37;4.80;;;5.30;1.00;;;;;;5046279;28;20425;-83
2022/09/22 04:47:51;;;;;;;8.10;5.70;;;5.30;1.00;;;;;;5047809;28;20419;-77
2022/09/22 04:50:20;;;;;;;9.63;5.43;;;5.30;1.00;;;;;;5048484;28;20901;-77
2022/09/22 04:53:14;;;;;;;10.70;5.30;;;5.40;1.00;;;;;;5051972;28;20507;-78
2022/09/22 04:56:14;;;;;;;5.63;5.10;;;5.40;1.00;;;;;;5043079;28;20430;-80
2022/09/22 04:58:50;;;;;;;14.50;5.40;;;5.40;1.00;;;;;;5050431;28;20460;-77
2022/09/22 05:01:20;;;;;;;11.07;5.53;;;5.30;1.00;;;;;;5052905;28;20432;-87
2022/09/22 05:10:56;;;;;;;5.73;5.13;;;5.30;1.00;;;;;;5050955;28;20489;-87
2022/09/22 05:16:44;;;;;;;9.67;5.80;;;5.20;1.00;;;;;;5048688;28;20813;-78
2022/09/22 05:19:20;;;;;;;9.27;4.93;;;5.20;1.00;;;;;;5044803;28;20413;-79
2022/09/22 05:21:50;;;;;;;7.70;5.37;;;5.30;1.00;;;;;;5047494;28;20415;-78
2022/09/22 05:24:44;;;;;;;7.60;5.20;;;5.20;1.00;;;;;;5045210;28;20426;-82
2022/09/22 05:27:20;;;;;;;9.67;5.97;;;5.30;1.00;;;;;;5033969;28;20465;-79
2022/09/22 05:29:50;;;;;;;6.33;5.30;;;5.30;1.00;;;;;;5032157;28;20988;-78
2022/09/22 05:32:16;;;;;;;11.77;6.50;;;5.30;1.00;;;;;;5040236;28;20459;-78
2022/09/22 05:34:50;;;;;;;7.00;6.30;;;5.40;1.00;;;;;;5046222;28;20430;-78
2022/09/22 05:37:26;;;;;;;8.67;6.80;;;5.40;1.00;;;;;;5040007;28;20207;-79
2022/09/22 05:40:04;;;;;;;9.27;5.97;;;5.50;1.00;;;;;;5041408;28;20506;-78
2022/09/22 05:42:33;;;;;;;6.93;5.70;;;5.60;1.00;;;;;;5047659;28;20996;-79
2022/09/22 05:45:09;;;;;;;7.80;5.93;;;5.60;1.00;;;;;;5040807;28;20434;-78
2022/09/22 05:47:44;;;;;;;8.07;6.00;;;5.60;1.00;;;;;;5047122;28;20466;-79
2022/09/22 05:50:22;;;;;;;10.37;6.07;;;5.70;1.00;;;;;;5037721;28;20427;-78
2022/09/22 05:52:49;;;;;;;7.60;5.80;;;5.80;1.00;;;;;;5053398;28;20487;-79
2022/09/22 05:55:15;;;;;;;6.10;5.50;;;5.80;1.00;;;;;;5053054;28;20430;-80
2022/09/22 05:57:44;;;;;;;9.93;5.90;;;5.90;1.00;;;;;;5056909;28;20490;-81
2022/09/22 06:00:56;;;;;;;9.50;5.87;;;5.90;1.00;;;;;;5043537;28;20207;-80
2022/09/22 06:06:58;;;;;;;9.80;5.63;;;6.10;1.00;;;;;;5042608;28;20443;-83
2022/09/22 06:13:09;;;;;;;8.20;5.60;;;6.20;1.00;;;;;;5055645;28;20385;-84
2022/09/22 06:18:56;;;;;;;12.03;5.97;;;6.40;1.00;;;;;;5037963;28;20417;-84
2022/09/22 06:21:56;;;;;;;9.10;6.47;;;6.50;1.00;;;;;;5046003;28;20414;-84
2022/09/22 06:24:27;;;;;;;8.00;5.50;;;6.60;1.00;;;;;;5048942;28;20176;-84
2022/09/22 06:37:32;;;;;;;7.87;4.80;;;7.00;1.00;;;;;;5056201;28;21019;-85
2022/09/22 06:43:23;;;;;;;9.47;5.13;;;7.30;1.00;;;;;;5047264;28;20393;-85
2022/09/22 06:49:10;;;;;;;7.73;5.50;;;7.50;1.00;;;;;;5036191;28;20472;-81
2022/09/22 06:51:38;;;;;;;8.93;5.80;;;7.70;1.00;;;;;;5042235;28;20906;-81
2022/09/22 06:54:08;;;;;;;8.90;5.60;;;7.80;1.00;;;;;;5055435;28;20234;-82
2022/09/22 06:56:38;;;;;;;9.80;5.77;;;8.00;1.00;;;;;;5054181;28;20465;-81
2022/09/22 06:59:20;;;;;;;11.47;6.00;;;8.10;1.00;;;;;;5042903;28;20414;-81
2022/09/22 07:02:08;;;;;;;8.77;5.93;;;8.20;1.00;;;;;;5039020;28;20980;-81
2022/09/22 07:05:02;;;;;;;6.17;5.30;;;8.40;1.00;;;;;;5046487;28;20410;-80
2022/09/22 07:07:29;;;;;;;8.63;6.23;;;8.50;1.00;;;;;;5045354;28;20429;-80
2022/09/22 07:09:56;;;;;;;8.47;5.20;;;8.60;1.00;;;;;;5047705;28;20429;-81
2022/09/22 07:12:38;;;;;;;7.63;4.97;;;8.90;1.00;;;;;;5051898;28;20441;-81
2022/09/22 07:15:33;;;;;;;8.77;5.30;;;8.90;1.00;;;;;;5049321;28;20430;-81
2022/09/22 07:18:08;;;;;;;6.60;4.47;;;9.00;1.00;;;;;;5052780;28;20446;-85
2022/09/22 07:23:57;;;;;;;7.17;4.03;;;9.40;1.00;;;;;;5048738;28;20417;-84
2022/09/22 07:27:09;;;;;;;6.33;4.00;;;9.50;1.00;;;;;;5051647;28;20788;-85
2022/09/22 07:29:36;;;;;;;6.30;4.30;;;9.60;1.00;;;;;;5042586;28;20421;-85
2022/09/22 07:32:14;;;;;;;5.90;3.50;;;9.80;1.00;;;;;;5048929;28;20459;-85
2022/09/22 07:34:46;;;;;;;3.70;3.30;;;9.90;1.00;;;;;;5043500;28;20587;-81
2022/09/22 07:37:40;;;;;;;7.73;2.87;;;10.00;1.00;;;;;;5045132;28;20964;-80
2022/09/22 07:40:14;;;;;;;5.43;3.23;;;10.10;1.00;;;;;;5050358;28;20491;-81
2022/09/22 07:42:48;;;;;;;5.80;2.97;;;10.20;1.00;;;;;;5049289;28;20425;-80
2022/09/22 07:45:38;;;;;;;6.67;3.17;;;10.30;1.00;;;;;;5053861;28;20476;-81
2022/09/22 07:51:18;;;;;;;4.10;2.70;;;10.50;1.00;;;;;;4991946;28;20421;-85
2022/09/22 07:57:56;;;;;;;6.63;3.20;;;10.80;1.00;;;;;;4988655;28;20475;-86
2022/09/22 08:01:14;;;;;;;5.77;3.17;;;10.90;1.00;;;;;;4977893;28;20422;-86
2022/09/22 08:03:51;;;;;;;3.50;3.03;;;11.10;1.00;;;;;;4994508;28;20436;-86
2022/09/22 08:09:39;;;;;;;7.30;4.80;;;11.30;1.00;;;;;;4992739;28;20503;-86
2022/09/22 08:18:55;;;;;;;5.63;3.17;;;11.60;1.00;;;;;;4993715;28;21065;-81
2022/09/22 08:21:34;;;;;;;4.30;2.80;;;11.70;1.00;;;;;;4976557;28;21022;-83
2022/09/22 08:24:06;;;;;;;5.83;3.30;;;11.90;1.00;;;;;;4989115;28;20420;-81
2022/09/22 08:26:35;;;;;;;10.63;3.27;;;11.90;1.00;;;;;;4993005;28;20480;-81
2022/09/22 08:29:09;;;;;;;3.37;2.63;;;12.10;1.00;;;;;;5039174;28;20498;-82
2022/09/22 08:31:37;;;;;;;6.33;3.50;;;12.30;1.00;;;;;;5051786;28;20398;-81
2022/09/22 08:34:21;;;;;;;4.33;3.03;;;12.30;1.00;;;;;;5052159;28;20410;-81
2022/09/22 08:36:50;;;;;;;4.50;2.43;;;12.40;1.00;;;;;;5060411;28;20421;-81
2022/09/22 08:43:03;;;;;;;5.97;2.93;;;12.70;1.00;;;;;;5053726;28;20951;-81
2022/09/22 08:45:39;;;;;;;8.90;3.40;;;12.80;1.00;;;;;;5047698;28;20454;-82
2022/09/22 09:01:04;;;;;;;3.73;3.30;;;13.40;1.00;;;;;;5042137;28;20438;-86
2022/09/22 09:04:09;;;;;;;4.33;3.00;;;13.40;1.00;;;;;;5045079;28;20425;-82
2022/09/22 09:07:09;;;;;;;3.73;2.60;;;13.60;1.00;;;;;;5033767;28;20860;-83
2022/09/22 09:09:54;;;;;;;6.90;3.07;;;13.70;1.00;;;;;;5045946;28;20381;-83
2022/09/22 09:12:37;;;;;;;3.10;2.50;;;13.90;1.00;;;;;;5053405;28;20403;-83
2022/09/22 09:15:36;;;;;;;3.90;2.70;;;14.10;1.00;;;;;;5053309;28;20426;-82
2022/09/22 09:18:19;;;;;;;2.40;2.17;;;14.20;1.00;;;;;;5040199;28;20463;-82
2022/09/22 09:20:58;;;;;;;4.10;2.47;;;14.30;1.00;;;;;;5032690;28;20728;-82
2022/09/22 09:23:34;;;;;;;3.17;2.47;;;14.50;1.00;;;;;;5050646;28;20409;-82
2022/09/22 09:26:08;;;;;;;4.30;2.37;;;14.60;1.00;;;;;;5040421;28;20430;-82
2022/09/22 09:28:41;;;;;;;3.33;2.70;;;14.70;1.00;;;;;;5046604;28;20796;-82
2022/09/22 09:31:38;;;;;;;2.60;2.20;;;14.80;1.00;;;;;;5043558;28;20440;-82
2022/09/22 09:37:27;;;;;;;3.87;2.30;;;15.00;1.00;;;;;;5053075;28;20498;-83
2022/09/22 09:39:54;;;;;;;2.80;2.40;;;15.10;1.00;;;;;;5063176;28;20442;-82
2022/09/22 09:42:38;;;;;;;4.07;2.10;;;15.20;1.00;;;;;;5040233;28;20415;-82
2022/09/22 09:45:27;;;;;;;2.20;2.00;;;15.30;1.00;;;;;;5042068;28;20376;-83
2022/09/22 09:54:37;;;;;;;2.20;2.00;;;15.70;1.00;;;;;;5044540;28;20444;-88
2022/09/22 09:57:11;;;;;;;5.90;1.87;;;15.80;1.00;;;;;;5041339;28;20935;-88
2022/09/22 10:00:30;;;;;;;2.37;2.00;;;15.90;1.00;;;;;;5041392;28;20504;-87
2022/09/22 10:03:13;;;;;;;4.03;2.33;;;16.00;1.00;;;;;;5048417;28;20415;-87
2022/09/22 10:06:07;;;;;;;2.77;1.80;;;16.10;1.00;;;;;;5054501;28;20377;-87
2022/09/22 10:08:46;;;;;;;2.97;1.73;;;16.20;1.00;;;;;;5048918;28;20414;-87
2022/09/22 10:17:56;;;;;;;2.40;1.30;;;16.30;1.00;;;;;;5051253;28;20967;-86
2022/09/22 10:20:33;;;;;;;2.60;1.83;;;16.50;1.00;;;;;;5052888;28;20382;-87
2022/09/22 10:23:39;;;;;;;4.00;1.53;;;16.60;1.00;;;;;;5053626;28;20171;-87
2022/09/22 10:26:32;;;;;;;2.13;1.50;;;16.70;1.00;;;;;;5053526;28;20411;-87
2022/09/22 10:29:44;;;;;;;2.50;1.90;;;16.70;1.00;;;;;;5052568;28;20540;-87
2022/09/22 10:32:26;;;;;;;4.00;1.50;;;16.70;1.00;;;;;;5052925;28;20433;-87
2022/09/22 10:34:58;;;;;;;4.63;1.77;;;16.80;1.00;;;;;;5069319;28;20389;-83
2022/09/22 10:37:32;;;;;;;2.27;1.57;;;17.00;1.00;;;;;;5060736;28;20477;-83
2022/09/22 10:40:16;;;;;;;4.93;1.20;;;17.10;1.00;;;;;;5042979;28;20420;-82
2022/09/22 10:42:55;;;;;;;1.33;1.10;;;17.20;1.00;;;;;;5049784;28;20395;-83
2022/09/22 10:45:54;;;;;;;2.43;1.23;;;17.40;1.00;;;;;;5045325;28;20411;-83
2022/09/22 10:48:52;;;;;;;4.80;1.23;;;17.40;1.00;;;;;;5043656;28;20400;-83
2022/09/22 10:51:53;;;;;;;3.03;1.50;;;17.60;1.00;;;;;;5050540;28;20766;-83
2022/09/22 10:54:50;;;;;;;1.73;1.00;;;17.70;1.00;;;;;;5036182;28;20924;-83
2022/09/22 10:57:45;;;;;;;4.00;0.90;;;17.80;1.00;;;;;;5051450;28;21071;-83
2022/09/22 11:00:56;;;;;;;1.80;1.03;;;17.80;1.00;;;;;;5054148;28;20390;-83
2022/09/22 11:03:40;;;;;;;2.67;0.83;;;17.90;1.00;;;;;;5041334;28;20392;-83
2022/09/22 11:13:44;;;;;;;1.00;1.00;;;18.20;1.00;;;;;;5047993;28;20453;-83
2022/09/22 11:17:02;;;;;;;3.83;1.10;;;18.20;1.00;;;;;;5047666;28;20475;-83
2022/09/22 11:19:39;;;;;;;4.20;1.10;;;18.30;1.00;;;;;;5039143;28;20444;-86
2022/09/22 11:29:08;;;;;;;2.00;1.00;;;18.50;1.00;;;;;;5052912;28;20427;-87
2022/09/22 11:32:14;;;;;;;3.73;0.80;;;18.50;1.00;;;;;;5042443;28;20405;-88
2022/09/22 11:35:20;;;;;;;3.57;0.90;;;18.60;1.00;;;;;;5035988;28;20448;-86
2022/09/22 11:38:00;;;;;;;4.87;1.13;;;18.70;1.00;;;;;;5045870;28;20464;-87
2022/09/22 11:40:45;;;;;;;1.20;0.80;;;18.80;1.00;;;;;;5042626;28;20417;-87
2022/09/22 11:43:56;;;;;;;3.43;0.90;;;18.90;1.00;;;;;;5041011;28;20414;-87
2022/09/22 11:50:11;;;;;;;1.70;1.00;;;19.10;1.00;;;;;;5054460;28;20485;-87
2022/09/22 11:53:00;;;;;;;1.93;1.13;;;19.10;1.00;;;;;;5045361;28;20408;-87
2022/09/22 11:55:45;;;;;;;6.00;1.50;;;19.10;1.00;;;;;;5039270;28;20433;-87
2022/09/22 11:58:50;;;;;;;1.10;0.90;;;19.20;1.00;;;;;;5055578;28;20457;-87
2022/09/22 12:05:05;;;;;;;2.83;1.00;;;19.40;1.00;;;;;;5055257;28;20477;-87
2022/09/22 12:07:55;;;;;;;1.50;0.80;;;19.50;1.00;;;;;;5040473;28;20475;-83
2022/09/22 12:10:45;;;;;;;2.13;1.13;;;19.50;1.00;;;;;;5034688;28;20972;-83
2022/09/22 12:13:19;;;;;;;1.33;0.83;;;19.60;1.00;;;;;;5033540;28;20989;-83
2022/09/22 12:16:11;;;;;;;3.20;0.90;;;19.70;1.00;;;;;;5051727;28;20440;-83
2022/09/22 12:19:33;;;;;;;3.03;1.10;;;19.70;1.00;;;;;;5039421;28;20812;-84
2022/09/22 12:22:23;;;;;;;1.63;1.10;;;19.80;1.00;;;;;;5049625;28;20395;-87
2022/09/22 12:25:14;;;;;;;3.37;1.20;;;19.90;1.00;;;;;;5054609;28;20429;-87
2022/09/22 12:27:57;;;;;;;1.43;1.10;;;20.00;1.00;;;;;;5054984;28;20406;-87
2022/09/22 12:31:17;;;;;;;2.70;1.00;;;19.90;1.00;;;;;;5050865;28;21023;-87
2022/09/22 12:37:10;;;;;;;1.80;0.97;;;19.50;1.00;;;;;;5053590;28;20432;-83
2022/09/22 12:39:42;;;;;;;5.90;1.10;;;19.50;1.00;;;;;;5041987;28;20558;-83
2022/09/22 12:42:19;;;;;;;2.80;0.80;;;19.40;1.00;;;;;;5040470;28;20441;-83
2022/09/22 12:44:58;;;;;;;2.20;1.10;;;19.20;1.00;;;;;;5040523;28;20411;-83
2022/09/22 12:50:46;;;;;;;1.20;1.10;;;18.90;1.00;;;;;;5043739;28;20470;-83
2022/09/22 12:53:56;;;;;;;1.70;1.10;;;18.80;1.00;;;;;;5053391;28;20441;-82
2022/09/22 12:56:45;;;;;;;1.40;0.77;;;18.90;1.00;;;;;;5039021;28;20195;-82
2022/09/22 12:59:44;;;;;;;5.83;0.80;;;19.20;1.00;;;;;;5053616;28;20979;-82
2022/09/22 13:02:39;;;;;;;3.40;0.80;;;19.30;1.00;;;;;;5044086;28;20786;-83
2022/09/22 13:05:09;;;;;;;2.43;1.03;;;19.30;1.00;;;;;;5041729;28;20455;-81
2022/09/22 13:07:42;;;;;;;2.30;0.90;;;19.30;1.00;;;;;;5051700;28;20420;-82
2022/09/22 13:13:04;;;;;;;2.73;1.10;;;19.30;1.00;;;;;;5048976;28;20423;-84
2022/09/22 13:15:50;;;;;;;2.67;1.03;;;19.50;1.00;;;;;;5053122;28;20428;-82
2022/09/22 13:18:37;;;;;;;6.87;1.10;;;19.50;1.00;;;;;;5053499;28;20480;-83
2022/09/22 13:24:27;;;;;;;1.17;1.03;;;19.30;1.00;;;;;;5040604;28;20455;-82
2022/09/22 13:27:03;;;;;;;1.47;1.10;;;19.40;1.00;;;;;;5053378;28;20448;-82
2022/09/22 13:29:29;;;;;;;1.43;1.10;;;19.50;1.00;;;;;;5053163;28;20429;-82
2022/09/22 13:31:57;;;;;;;1.30;0.90;;;19.60;1.00;;;;;;5043577;28;20418;-81
2022/09/22 13:34:34;;;;;;;1.87;1.17;;;19.50;1.00;;;;;;5047458;28;20964;-81
2022/09/22 13:37:19;;;;;;;1.80;0.90;;;19.40;1.00;;;;;;5040259;28;21224;-83
2022/09/22 13:39:57;;;;;;;1.20;0.90;;;19.40;1.00;;;;;;5047210;28;20416;-85
2022/09/22 13:42:33;;;;;;;4.50;1.33;;;19.40;1.00;;;;;;5043893;28;20480;-83
2022/09/22 13:45:06;;;;;;;1.47;1.00;;;19.20;1.00;;;;;;5049835;28;20417;-83
2022/09/22 13:47:41;;;;;;;1.30;0.87;;;19.20;1.00;;;;;;5053248;28;20376;-84
2022/09/22 13:50:11;;;;;;;2.03;1.40;;;19.20;1.00;;;;;;5051979;28;20428;-85
2022/09/22 13:52:50;;;;;;;0.93;0.90;;;19.20;1.00;;;;;;5052136;28;20436;-86
2022/09/22 13:59:20;;;;;;;4.53;0.97;;;19.40;1.00;;;;;;5041618;28;20468;-85
2022/09/22 14:01:51;;;;;;;1.50;0.93;;;19.30;1.00;;;;;;5045346;28;20440;-88
2022/09/22 14:07:39;;;;;;;7.00;1.27;;;19.20;1.00;;;;;;5042460;28;20483;-87
2022/09/22 14:13:36;;;;;;;1.27;1.10;;;19.50;1.00;;;;;;5043530;28;20237;-84
2022/09/22 14:16:38;;;;;;;7.60;1.30;;;19.70;1.00;;;;;;5065695;28;20529;-84
2022/09/22 14:19:32;;;;;;;2.93;1.17;;;19.90;1.00;;;;;;5044940;28;20460;-83
2022/09/22 14:22:28;;;;;;;2.70;0.90;;;20.00;1.00;;;;;;5043802;28;20436;-88
2022/09/22 14:25:03;;;;;;;2.33;0.93;;;20.10;1.00;;;;;;5056211;28;20415;-88
2022/09/22 14:27:50;;;;;;;1.43;0.90;;;20.20;1.00;;;;;;5050789;28;20466;-82
2022/09/22 14:33:43;;;;;;;1.77;1.10;;;20.30;1.00;;;;;;5037284;28;20402;-88
2022/09/22 14:36:33;;;;;;;3.00;1.10;;;20.30;1.00;;;;;;5048942;28;20573;-87
2022/09/22 14:39:23;;;;;;;2.30;0.80;;;20.40;1.00;;;;;;5051942;28;20549;-82
2022/09/22 14:41:57;;;;;;;1.53;1.00;;;20.40;1.00;;;;;;5056143;28;20438;-82
2022/09/22 14:44:49;;;;;;;1.23;0.93;;;20.50;1.00;;;;;;5056125;28;20423;-81
2022/09/22 14:47:39;;;;;;;2.50;0.80;;;20.40;1.00;;;;;;5056270;28;20814;-81
2022/09/22 14:50:33;;;;;;;3.70;0.90;;;20.50;1.00;;;;;;5045267;28;20410;-84
2022/09/22 14:56:27;;;;;;;2.00;0.90;;;20.60;1.00;;;;;;5041795;28;21863;-89
2022/09/22 15:02:34;;;;;;;3.97;0.80;;;20.40;1.00;;;;;;5052063;28;20402;-87
2022/09/22 15:05:36;;;;;;;0.90;0.73;;;20.40;1.00;;;;;;5056586;28;20882;-87
2022/09/22 15:08:03;;;;;;;1.97;0.80;;;20.50;1.00;;;;;;4989170;28;20411;-81
2022/09/22 15:10:34;;;;;;;1.10;1.00;;;20.70;1.00;;;;;;4981571;28;20463;-81
2022/09/22 15:13:28;;;;;;;1.30;0.90;;;21.20;1.00;;;;;;5009318;28;20503;-82
2022/09/22 15:16:27;;;;;;;5.70;0.80;;;22.20;1.00;;;;;;4996993;28;20401;-81
2022/09/22 15:18:57;;;;;;;1.73;0.90;;;23.20;1.00;;;;;;5013841;28;20526;-81
2022/09/22 15:21:56;;;;;;;1.83;0.90;;;24.30;1.00;;;;;;5007888;28;20893;-83
2022/09/22 15:24:33;;;;;;;3.57;1.00;;;25.20;1.00;;;;;;5014690;28;20440;-86
2022/09/22 15:27:16;;;;;;;3.03;1.00;;;26.30;1.00;;;;;;5014192;28;20421;-87
2022/09/22 15:29:48;;;;;;;2.73;0.90;;;27.20;1.00;;;;;;5013944;28;20516;-87
2022/09/22 15:32:32;;;;;;;1.33;0.90;;;27.80;1.00;;;;;;5013806;28;20417;-85
2022/09/22 15:35:03;;;;;;;0.70;0.70;;;28.30;1.00;;;;;;4999600;28;20920;-84
2022/09/22 15:37:38;;;;;;;1.07;0.70;;;29.00;1.00;;;;;;5014126;28;20455;-81
2022/09/22 15:40:21;;;;;;;0.80;0.77;;;29.50;1.00;;;;;;5002228;28;20457;-82
2022/09/22 15:43:19;;;;;;;1.53;0.80;;;30.00;1.00;;;;;;5034323;28;20989;-81
2022/09/22 15:45:47;;;;;;;0.90;0.70;;;30.50;1.00;;;;;;5041372;28;20418;-81
2022/09/22 15:48:23;;;;;;;1.20;0.70;;;30.90;1.00;;;;;;5043237;28;20904;-82
2022/09/22 15:50:50;;;;;;;0.90;0.77;;;31.10;1.00;;;;;;5053742;28;20481;-81
2022/09/22 15:53:34;;;;;;;1.70;1.00;;;31.50;1.00;;;;;;5052561;28;20442;-82
2022/09/22 15:56:22;;;;;;;1.20;0.60;;;32.00;1.00;;;;;;5053156;28;20921;-81
2022/09/22 15:58:49;;;;;;;1.03;0.70;;;32.50;1.00;;;;;;5053912;28;21007;-81
2022/09/22 16:01:18;;;;;;;2.77;0.80;;;31.90;1.00;;;;;;5042963;28;20468;-80
2022/09/22 16:04:02;;;;;;;1.07;0.80;;;32.00;1.00;;;;;;5054686;28;20845;-80
2022/09/22 16:06:28;;;;;;;0.90;0.80;;;32.10;1.00;;;;;;5054785;28;20870;-80
2022/09/22 16:08:55;;;;;;;0.80;0.70;;;32.20;1.00;;;;;;5050927;28;20448;-86
2022/09/22 16:11:28;;;;;;;1.10;0.70;;;32.40;1.00;;;;;;5033476;28;20194;-85
2022/09/22 16:14:10;;;;;;;1.03;0.70;;;32.40;1.00;;;;;;5052634;28;20422;-87
2022/09/22 16:16:56;;;;;;;0.80;0.70;;;32.00;1.00;;;;;;5042863;28;20455;-89
2022/09/22 16:19:33;;;;;;;4.30;0.80;;;31.90;1.00;;;;;;5049590;28;20469;-82
2022/09/22 16:22:26;;;;;;;0.90;0.70;;;31.40;1.00;;;;;;5054345;28;20493;-85
2022/09/22 16:25:10;;;;;;;1.20;0.77;;;30.40;1.00;;;;;;5036985;28;20466;-86
2022/09/22 16:27:39;;;;;;;1.80;0.83;;;29.80;1.00;;;;;;5054015;28;20425;-86
2022/09/22 16:30:10;;;;;;;2.40;0.60;;;29.30;1.00;;;;;;5053561;28;20849;-86
2022/09/22 16:32:40;;;;;;;0.90;0.70;;;28.70;1.00;;;;;;5044367;28;20442;-87
2022/09/22 16:35:56;;;;;;;0.87;0.87;;;27.90;1.00;;;;;;5069771;28;20785;-87
2022/09/22 16:38:51;;;;;;;1.20;0.90;;;27.00;1.00;;;;;;5054280;28;20503;-87
2022/09/22 16:41:28;;;;;;;2.30;1.00;;;25.70;1.00;;;;;;5053299;28;20439;-87
2022/09/22 16:43:57;;;;;;;1.00;0.90;;;24.60;1.00;;;;;;5054211;28;20416;-85
2022/09/22 16:49:46;;;;;;;7.90;1.40;;;23.10;1.00;;;;;;5046795;28;20392;-84
2022/09/22 16:52:50;;;;;;;2.23;1.00;;;22.10;1.00;;;;;;5050521;28;20450;-84
2022/09/22 16:55:15;;;;;;;1.60;1.00;;;21.40;1.00;;;;;;5053504;28;20452;-81
2022/09/22 16:57:45;;;;;;;2.43;1.00;;;20.80;1.00;;;;;;5043161;28;20484;-82